Harrison, Tennessee
Current Conditions -  °F | °C
As of 1:53 PM on Wednesday 26 Nov 2014 (Local Time) from KCHA Reporting Station
Scattered Clouds Scattered Clouds  
Wind Chill: 53°   Ceiling: Unl
Heat Index: 53°   Visibility: 10mi
Dew Point: 23°   Wind: 5mph
Humidity: 31%   Direction: 250°WSW
Pressure: 30.07"   Gusts: NA
Location:  35.11°N, 85.14°W
Report Text: KCHA 261853Z 25004KT 10SM FEW190 SCT250 12/M05 A3007 RMK AO2 SLP184 T01171050
Loading
Personal Weather Stations






























Interactive Weather Map New forecast layout! Learn more

10-Day Weather Forecast

Advertisements
Track Severe Weather on mobile